createdAt,value
2018-05-24T00:00:37.342Z,21.40
2018-05-24T00:03:05.693Z,20.03
2018-05-24T00:05:33.310Z,19.93
2018-05-24T00:08:00.891Z,19.77
2018-05-24T00:10:28.506Z,20.30
2018-05-24T00:12:56.854Z,18.97
2018-05-24T00:15:24.469Z,19.90
2018-05-24T00:17:52.050Z,19.13
2018-05-24T00:20:19.672Z,18.30
2018-05-24T00:22:47.259Z,19.17
2018-05-24T00:25:14.912Z,18.50
2018-05-24T00:27:42.519Z,19.13
2018-05-24T00:30:10.897Z,18.70
2018-05-24T00:32:38.482Z,18.60
2018-05-24T00:35:06.098Z,18.03
2018-05-24T00:37:34.467Z,18.67
2018-05-24T00:40:02.091Z,18.70
2018-05-24T00:42:29.672Z,17.00
2018-05-24T00:44:57.309Z,17.90
2018-05-24T00:47:24.889Z,18.50
2018-05-24T00:49:52.501Z,18.57
2018-05-24T00:52:20.094Z,18.50
2018-05-24T00:54:48.484Z,18.87
2018-05-24T00:57:16.065Z,19.60
2018-05-24T00:59:43.651Z,18.97
2018-05-24T01:02:11.266Z,19.13
2018-05-24T01:04:39.617Z,20.17
2018-05-24T01:07:07.244Z,18.63
2018-05-24T01:09:35.605Z,19.87
2018-05-24T01:12:03.217Z,19.63
2018-05-24T01:14:30.828Z,20.37
2018-05-24T01:16:59.213Z,20.07
2018-05-24T01:19:27.574Z,19.43
2018-05-24T01:21:55.189Z,20.20
2018-05-24T01:24:22.770Z,19.27
2018-05-24T01:26:50.390Z,20.70
2018-05-24T01:29:18.739Z,20.57
2018-05-24T01:31:46.379Z,19.93
2018-05-24T01:34:14.730Z,20.37
2018-05-24T01:36:54.310Z,20.37
2018-05-24T01:39:21.903Z,20.23
2018-05-24T01:41:49.522Z,19.77
2018-05-24T01:44:17.108Z,20.57
2018-05-24T01:46:44.722Z,20.33
2018-05-24T01:49:12.302Z,19.40
2018-05-24T01:51:39.934Z,19.73
2018-05-24T01:54:07.519Z,19.80
2018-05-24T01:56:35.134Z,17.97
2018-05-24T01:59:02.750Z,18.97
2018-05-24T02:01:30.364Z,19.20
2018-05-24T02:03:57.958Z,18.90
2018-05-24T02:06:25.578Z,19.93
2018-05-24T02:08:53.166Z,18.30
2018-05-24T02:11:20.780Z,18.30
2018-05-24T02:13:48.359Z,18.83
2018-05-24T02:16:15.974Z,19.67
2018-05-24T02:18:43.563Z,17.67
2018-05-24T02:21:11.182Z,18.47
2018-05-24T02:23:38.779Z,17.43
2018-05-24T02:26:06.398Z,18.03
2018-05-24T02:28:34.014Z,18.67
2018-05-24T02:31:02.399Z,17.40
2018-05-24T02:33:30.759Z,17.27
2018-05-24T02:35:58.515Z,17.70
2018-05-24T02:38:25.990Z,17.97
2018-05-24T02:40:54.334Z,17.53
2018-05-24T02:43:21.949Z,17.57
2018-05-24T02:45:49.533Z,17.67
2018-05-24T02:48:17.150Z,17.13
2018-05-24T02:50:45.515Z,17.80
2018-05-24T02:53:13.135Z,17.00
2018-05-24T02:55:40.710Z,17.83
2018-05-24T02:58:08.354Z,18.23
2018-05-24T03:00:35.934Z,16.00
2018-05-24T03:03:03.694Z,16.73
2018-05-24T03:05:31.287Z,17.20
2018-05-24T03:07:58.906Z,17.63
2018-05-24T03:10:26.491Z,16.83
2018-05-24T03:12:54.110Z,17.03
2018-05-24T03:15:21.733Z,16.47
2018-05-24T03:17:49.347Z,17.13
2018-05-24T03:20:16.925Z,17.37
2018-05-24T03:22:44.541Z,17.97
2018-05-24T03:25:12.131Z,16.87
2018-05-24T03:27:39.751Z,16.77
2018-05-24T03:30:07.343Z,16.10
2018-05-24T03:32:34.965Z,16.73
2018-05-24T03:35:02.542Z,16.17
2018-05-24T03:37:30.160Z,16.10
2018-05-24T03:39:57.741Z,16.27
2018-05-24T03:42:25.365Z,15.73
2018-05-24T03:44:52.946Z,16.73
2018-05-24T03:47:20.559Z,15.63
2018-05-24T03:49:48.141Z,15.60
2018-05-24T03:52:15.826Z,14.67
2018-05-24T03:54:44.138Z,14.73
2018-05-24T03:57:11.753Z,15.30
2018-05-24T04:02:55.926Z,15.30
2018-05-24T04:05:23.508Z,14.97
2018-05-24T04:07:51.146Z,16.37
2018-05-24T04:10:18.741Z,14.63
2018-05-24T04:12:46.351Z,14.27
2018-05-24T04:15:13.930Z,14.47
2018-05-24T04:17:42.309Z,14.37
2018-05-24T04:20:09.894Z,14.03
2018-05-24T04:22:37.517Z,13.97
2018-05-24T04:25:05.734Z,13.77
2018-05-24T04:27:33.353Z,14.20
2018-05-24T04:30:00.932Z,14.07
2018-05-24T04:32:28.541Z,13.63
2018-05-24T06:06:34.375Z,10.53
2018-05-24T06:09:02.779Z,10.90
2018-05-24T06:11:31.134Z,10.40
2018-05-24T06:13:58.865Z,9.63
2018-05-24T06:16:27.147Z,10.53
2018-05-24T06:18:54.778Z,10.07
2018-05-24T06:21:23.248Z,11.20
2018-05-24T06:23:51.620Z,10.80
2018-05-24T06:26:19.266Z,14.50
2018-05-24T06:28:47.654Z,11.23
2018-05-24T06:31:15.239Z,11.53
2018-05-24T06:33:42.858Z,11.23
2018-05-24T06:36:10.447Z,11.13
2018-05-24T06:38:38.075Z,11.07
2018-05-24T06:41:05.659Z,11.23
2018-05-24T06:43:33.274Z,10.20
2018-05-24T06:46:01.666Z,11.07
2018-05-24T06:48:29.250Z,10.77
2018-05-24T06:50:56.863Z,11.00
2018-05-24T06:53:25.216Z,11.43
2018-05-24T06:55:52.844Z,10.60
2018-05-24T06:58:21.195Z,10.30
2018-05-24T07:00:48.816Z,10.57
2018-05-24T07:03:16.478Z,10.60
2018-05-24T07:05:44.051Z,10.77
2018-05-24T07:08:11.646Z,10.97
2018-05-24T07:10:39.258Z,9.90
2018-05-24T07:13:06.839Z,9.63
2018-05-24T07:15:34.474Z,10.10
2018-05-24T07:18:02.090Z,9.80
2018-05-24T07:20:29.914Z,10.07
2018-05-24T07:22:58.263Z,10.40
2018-05-24T07:25:25.874Z,9.77
2018-05-24T07:27:53.457Z,9.37
2018-05-24T07:30:22.014Z,9.90
2018-05-24T07:32:50.367Z,9.77
2018-05-24T07:35:18.235Z,11.17
2018-05-24T07:37:45.910Z,9.93
2018-05-24T07:40:13.480Z,10.53
2018-05-24T07:42:41.826Z,9.63
2018-05-24T07:45:10.577Z,10.43
2018-05-24T07:47:38.934Z,11.10
2018-05-24T07:50:06.566Z,11.10
2018-05-24T07:52:34.931Z,13.53
2018-05-24T07:55:02.579Z,13.57
2018-05-24T07:57:30.164Z,15.87
2018-05-24T07:59:57.779Z,15.17
2018-05-24T08:02:25.367Z,16.13
2018-05-24T08:04:52.991Z,16.30
2018-05-24T08:07:20.575Z,17.53
2018-05-24T08:09:48.199Z,18.87
2018-05-24T08:12:15.787Z,21.50
2018-05-24T08:14:43.466Z,22.00
2018-05-24T08:17:11.114Z,24.03
2018-05-24T08:19:38.680Z,24.60
2018-05-24T08:22:06.275Z,25.07
2018-05-24T08:24:33.918Z,27.40
2018-05-24T08:27:01.514Z,29.10
2018-05-24T08:29:29.098Z,36.07
2018-05-24T08:31:56.715Z,29.50
2018-05-24T08:34:24.363Z,32.47
2018-05-24T08:36:51.990Z,33.73
2018-05-24T08:39:19.579Z,32.67
2018-05-24T08:41:47.217Z,33.37
2018-05-24T08:44:14.813Z,37.50
2018-05-24T08:46:42.435Z,32.23
2018-05-24T08:49:10.019Z,37.67
2018-05-24T08:51:37.634Z,38.10
2018-05-24T08:54:06.011Z,40.20
2018-05-24T08:56:33.643Z,34.30
2018-05-24T08:59:01.357Z,35.73
2018-05-24T09:01:29.094Z,42.13
2018-05-24T09:03:56.616Z,40.23
2018-05-24T09:06:24.243Z,38.37
2018-05-24T09:08:51.845Z,42.63
2018-05-24T09:11:20.243Z,43.23
2018-05-24T09:13:48.590Z,39.43
2018-05-24T09:16:16.206Z,44.07
2018-05-24T09:18:43.795Z,44.37
2018-05-24T09:21:11.420Z,41.40
2018-05-24T09:23:39.767Z,40.97
2018-05-24T09:26:07.388Z,44.13
2018-05-24T09:28:36.479Z,44.43
2018-05-24T09:31:04.102Z,44.03
2018-05-24T09:33:32.728Z,42.37
2018-05-24T09:36:00.346Z,41.17
2018-05-24T09:38:27.930Z,42.27
2018-05-24T09:40:55.555Z,39.70
2018-05-24T09:43:23.175Z,41.33
2018-05-24T09:45:50.902Z,40.00
2018-05-24T09:48:18.496Z,38.73
2018-05-24T09:50:46.115Z,39.23
2018-05-24T09:53:14.465Z,38.27
2018-05-24T09:55:42.090Z,39.10
2018-05-24T09:58:09.678Z,35.67
2018-05-24T10:00:37.301Z,33.20
2018-05-24T10:03:04.891Z,32.03
2018-05-24T10:05:32.517Z,36.50
2018-05-24T10:08:00.112Z,33.97
2018-05-24T10:10:28.510Z,34.00
2018-05-24T10:12:56.099Z,33.83
2018-05-24T10:15:23.916Z,33.03
2018-05-24T10:17:51.540Z,33.80
2018-05-24T10:20:19.335Z,31.20
2018-05-24T10:22:46.961Z,32.03
2018-05-24T10:25:15.316Z,30.53
2018-05-24T10:27:42.935Z,26.80
2018-05-24T10:30:10.697Z,30.40
2018-05-24T10:32:38.319Z,30.47
2018-05-24T10:35:05.950Z,29.77
2018-05-24T10:37:33.580Z,33.00
2018-05-24T10:40:03.324Z,31.97
2018-05-24T10:42:31.725Z,25.83
2018-05-24T10:45:00.350Z,28.33
2018-05-24T10:47:28.738Z,29.37
2018-05-24T10:49:56.327Z,29.50
2018-05-24T10:52:24.717Z,27.37
2018-05-24T10:54:52.307Z,30.03
2018-05-24T10:57:19.932Z,28.03
2018-05-24T10:59:47.519Z,25.80
2018-05-24T11:02:15.207Z,26.30
2018-05-24T11:04:42.792Z,27.50
2018-05-24T11:07:10.421Z,28.40
2018-05-24T11:09:38.008Z,26.20
2018-05-24T11:12:05.634Z,26.73
2018-05-24T11:14:34.008Z,26.73
2018-05-24T11:17:01.639Z,21.97
2018-05-24T11:19:29.222Z,20.97
2018-05-24T11:21:56.842Z,25.50
2018-05-24T11:24:24.491Z,24.77
2018-05-24T11:26:52.115Z,21.30
2018-05-24T11:29:19.698Z,23.23
2018-05-24T11:31:47.357Z,26.63
2018-05-24T11:34:14.951Z,24.53
2018-05-24T11:36:42.618Z,23.37
2018-05-24T11:39:10.203Z,24.57
2018-05-24T11:41:37.822Z,24.93
2018-05-24T11:44:05.412Z,23.33
2018-05-24T11:46:33.047Z,24.10
2018-05-24T11:49:00.638Z,23.87
2018-05-24T11:51:28.267Z,21.43
2018-05-24T11:53:55.857Z,20.73
2018-05-24T11:56:23.475Z,22.83
2018-05-24T11:58:51.826Z,20.53
2018-05-24T12:01:19.419Z,19.80
2018-05-24T12:03:47.085Z,19.77
2018-05-24T12:06:14.672Z,19.97
2018-05-24T12:08:42.375Z,20.50
2018-05-24T12:11:09.964Z,20.27
2018-05-24T12:13:37.582Z,20.30
2018-05-24T12:16:05.935Z,18.43
2018-05-24T12:18:33.564Z,19.90
2018-05-24T12:21:01.168Z,19.93
2018-05-24T12:23:29.559Z,19.63
2018-05-24T12:25:57.141Z,19.63
2018-05-24T12:28:24.762Z,23.70
2018-05-24T12:30:52.353Z,21.13
2018-05-24T12:33:19.987Z,24.27
2018-05-24T12:35:47.592Z,21.33
2018-05-24T12:38:15.987Z,21.00
2018-05-24T12:40:43.577Z,20.47
2018-05-24T12:43:11.972Z,25.13
2018-05-24T12:45:39.555Z,20.83
2018-05-24T12:48:07.187Z,25.63
2018-05-24T12:50:34.777Z,21.87
2018-05-24T12:53:02.414Z,24.00
2018-05-24T12:55:30.014Z,27.93
2018-05-24T12:57:58.430Z,22.93
2018-05-24T13:00:26.203Z,23.37
2018-05-24T13:02:54.591Z,23.70
2018-05-24T13:05:22.405Z,20.40
2018-05-24T13:07:50.791Z,27.70
2018-05-24T13:10:18.426Z,21.07
2018-05-24T13:12:46.047Z,25.23
2018-05-24T13:15:13.923Z,27.27
2018-05-24T13:17:41.549Z,22.90
2018-05-24T13:20:10.171Z,21.23
2018-05-24T13:22:37.848Z,22.57
2018-05-24T13:25:05.459Z,35.43
2018-05-24T13:27:33.087Z,29.33
2018-05-24T13:30:01.463Z,34.87
2018-05-24T13:32:29.149Z,26.37
2018-05-24T13:34:56.708Z,35.10
2018-05-24T13:37:24.329Z,23.50
2018-05-24T13:39:51.919Z,23.97
2018-05-24T13:42:19.548Z,26.40
2018-05-24T13:44:47.899Z,32.83
2018-05-24T13:47:15.483Z,26.30
2018-05-24T13:49:43.107Z,31.63
2018-05-24T13:52:10.696Z,25.87
2018-05-24T13:54:39.090Z,24.87
2018-05-24T13:57:06.679Z,27.37
2018-05-24T13:59:35.063Z,31.60
2018-05-24T14:02:02.656Z,28.03
2018-05-24T14:04:30.280Z,24.20
2018-05-24T14:06:57.865Z,27.30
2018-05-24T14:09:25.537Z,30.97
2018-05-24T14:11:53.098Z,27.97
2018-05-24T14:14:20.722Z,27.03
2018-05-24T14:16:48.302Z,25.37
2018-05-24T14:19:15.963Z,26.60
2018-05-24T14:21:43.550Z,26.37
2018-05-24T14:24:11.177Z,31.03
2018-05-24T14:26:38.763Z,26.40
2018-05-24T14:29:06.387Z,24.90
2018-05-24T14:31:33.974Z,25.60
2018-05-24T14:34:01.590Z,29.50
2018-05-24T14:36:29.943Z,30.27
2018-05-24T14:38:57.566Z,25.60
2018-05-24T14:41:25.915Z,29.27
2018-05-24T14:43:53.542Z,26.07
2018-05-24T14:46:21.128Z,34.77
2018-05-24T14:48:48.755Z,25.83
2018-05-24T14:51:16.338Z,27.73
2018-05-24T14:53:43.961Z,28.77
2018-05-24T14:56:11.550Z,31.73
2018-05-24T14:58:39.178Z,27.70
2018-05-24T15:01:07.531Z,28.97
2018-05-24T15:03:35.153Z,30.97
2018-05-24T15:06:03.499Z,26.80
2018-05-24T15:08:31.128Z,29.63
2018-05-24T15:10:58.715Z,25.83
2018-05-24T15:13:51.131Z,27.03
2018-05-24T15:16:18.727Z,25.10
2018-05-24T15:18:46.347Z,25.60
2018-05-24T15:21:13.939Z,30.10
2018-05-24T15:23:41.572Z,27.50
2018-05-24T15:26:09.163Z,26.40
2018-05-24T15:28:36.795Z,28.17
2018-05-24T15:31:04.391Z,26.77
2018-05-24T15:33:32.746Z,25.93
2018-05-24T15:36:00.366Z,28.23
2018-05-24T15:38:27.955Z,25.17
2018-05-24T15:40:55.573Z,24.23
2018-05-24T15:43:23.163Z,25.27
2018-05-24T15:45:50.795Z,25.17
2018-05-24T15:48:18.407Z,26.27
2018-05-24T15:50:46.802Z,24.00
2018-05-24T15:53:14.387Z,25.17
2018-05-24T15:55:42.007Z,22.97
2018-05-24T15:58:09.624Z,25.23
2018-05-24T16:00:37.715Z,23.43
2018-05-24T16:03:05.309Z,23.90
2018-05-24T16:05:32.935Z,25.27
2018-05-24T16:08:00.522Z,23.40
2018-05-24T16:10:28.147Z,24.40
2018-05-24T16:12:55.743Z,24.43
2018-05-24T16:15:23.572Z,23.57
2018-05-24T16:17:51.162Z,24.00
2018-05-24T16:20:19.894Z,23.97
2018-05-24T16:22:48.252Z,23.50
2018-05-24T16:25:15.872Z,23.23
2018-05-24T16:27:44.260Z,22.77
2018-05-24T16:30:12.220Z,23.67
2018-05-24T16:32:39.893Z,23.10
2018-05-24T16:35:07.809Z,22.47
2018-05-24T16:37:35.394Z,23.67
2018-05-24T16:40:03.501Z,23.43
2018-05-24T16:42:31.092Z,21.87
2018-05-24T16:44:58.726Z,21.27
2018-05-24T16:47:26.318Z,23.20
2018-05-24T16:49:53.942Z,21.33
2018-05-24T16:52:21.536Z,21.83
2018-05-24T16:54:49.155Z,21.70
2018-05-24T16:57:17.507Z,21.33
2018-05-24T16:59:45.136Z,22.17
2018-05-24T17:02:13.492Z,21.43
2018-05-24T17:04:41.122Z,22.00
2018-05-24T17:07:08.715Z,21.60
2018-05-24T17:09:37.071Z,21.07
2018-05-24T17:12:04.703Z,21.37
2018-05-24T17:14:33.065Z,20.97
2018-05-24T17:17:00.686Z,20.73
2018-05-24T17:19:29.043Z,20.93
2018-05-24T17:21:56.664Z,21.00
2018-05-24T17:24:24.255Z,21.27
2018-05-24T17:26:52.191Z,20.87
2018-05-24T17:29:19.771Z,22.43
2018-05-24T17:31:47.397Z,21.00
2018-05-24T17:34:14.979Z,24.57
2018-05-24T17:36:42.608Z,24.43
2018-05-24T17:39:11.032Z,25.13
2018-05-24T17:41:38.659Z,26.77
2018-05-24T17:44:06.250Z,24.27
2018-05-24T17:46:33.884Z,24.97
2018-05-24T17:49:01.471Z,21.70
2018-05-24T17:51:29.091Z,24.07
2018-05-24T17:53:56.675Z,26.00
2018-05-24T17:56:24.300Z,24.13
2018-05-24T17:58:52.649Z,25.83
2018-05-24T18:01:20.266Z,24.30
2018-05-24T18:03:47.863Z,26.90
2018-05-24T18:06:15.488Z,32.27
2018-05-24T18:08:43.073Z,32.37
2018-05-24T18:11:10.715Z,28.63
2018-05-24T18:13:38.320Z,27.43
2018-05-24T18:16:05.939Z,28.20
2018-05-24T18:18:33.531Z,26.37
2018-05-24T18:21:01.161Z,28.63
2018-05-24T18:23:29.523Z,27.83
2018-05-24T18:25:57.151Z,26.80
2018-05-24T18:28:24.739Z,28.30
2018-05-24T18:30:53.864Z,29.50
2018-05-24T18:33:21.456Z,29.60
2018-05-24T18:35:49.872Z,29.30
2018-05-24T18:38:17.468Z,29.27
2018-05-24T18:40:45.082Z,30.77
2018-05-24T18:43:12.671Z,30.57
2018-05-24T18:45:40.290Z,30.80
2018-05-24T18:48:07.878Z,30.27
2018-05-24T18:50:36.264Z,30.37
2018-05-24T18:53:03.903Z,31.03
2018-05-24T18:55:31.491Z,33.63
2018-05-24T18:57:59.134Z,31.50
2018-05-24T19:00:26.956Z,33.23
2018-05-24T19:02:54.591Z,32.40
2018-05-24T19:05:22.391Z,31.20
2018-05-24T19:07:50.095Z,34.03
2018-05-24T19:10:17.688Z,30.67
2018-05-24T19:12:46.074Z,32.97
2018-05-24T19:15:14.030Z,31.80
2018-05-24T19:17:41.657Z,34.70
2018-05-24T19:20:09.480Z,33.23
2018-05-24T19:22:37.104Z,32.47
2018-05-24T19:25:04.748Z,33.00
2018-05-24T19:27:32.447Z,33.70
2018-05-24T19:30:00.051Z,33.63
2018-05-24T19:32:27.690Z,32.93
2018-05-24T19:34:56.059Z,31.73
2018-05-24T19:37:24.464Z,31.73
2018-05-24T19:39:52.054Z,32.97
2018-05-24T19:42:19.679Z,32.00
2018-05-24T19:44:48.031Z,31.60
2018-05-24T19:47:15.657Z,29.57
2018-05-24T19:49:44.083Z,30.47
2018-05-24T19:52:11.737Z,30.17
2018-05-24T19:54:39.324Z,30.00
2018-05-24T19:57:07.723Z,28.53
2018-05-24T19:59:36.084Z,31.97
2018-05-24T20:02:03.711Z,29.77
2018-05-24T20:04:31.299Z,29.83
2018-05-24T20:06:58.923Z,28.43
2018-05-24T20:09:26.515Z,30.93
2018-05-24T20:11:54.138Z,27.33
2018-05-24T20:14:21.720Z,27.70
2018-05-24T20:16:49.351Z,27.87
2018-05-24T20:19:16.983Z,28.27
2018-05-24T20:21:44.611Z,28.70
2018-05-24T20:24:12.963Z,28.67
2018-05-24T20:26:40.592Z,25.43
2018-05-24T20:29:08.955Z,27.40
2018-05-24T20:31:36.582Z,25.33
2018-05-24T20:34:04.936Z,26.47
2018-05-24T20:36:32.536Z,25.07
2018-05-24T20:39:00.199Z,25.93
2018-05-24T20:41:27.786Z,24.77
2018-05-24T20:43:55.407Z,24.00
2018-05-24T20:46:22.991Z,23.17
2018-05-24T20:48:50.946Z,23.77
2018-05-24T20:51:18.544Z,23.57
2018-05-24T20:53:46.940Z,22.67
2018-05-24T20:56:14.542Z,22.30
2018-05-24T20:58:42.176Z,22.00
2018-05-24T21:01:10.595Z,22.07
2018-05-24T21:03:38.218Z,22.47
2018-05-24T21:06:05.815Z,20.60
2018-05-24T21:08:33.430Z,21.00
2018-05-24T21:11:01.798Z,20.33
2018-05-24T21:13:29.423Z,19.47
2018-05-24T21:15:57.775Z,20.13
2018-05-24T21:18:25.394Z,19.47
2018-05-24T21:20:53.753Z,19.90
2018-05-24T21:23:21.371Z,20.57
2018-05-24T21:25:48.951Z,19.77
2018-05-24T21:28:16.567Z,18.97
2018-05-24T21:30:44.923Z,18.43
2018-05-24T21:33:12.547Z,18.27
2018-05-24T21:35:40.903Z,19.43
2018-05-24T21:38:08.531Z,19.30
2018-05-24T21:40:36.890Z,17.17
2018-05-24T21:43:04.556Z,18.10
2018-05-24T21:45:32.186Z,16.97
2018-05-24T21:47:59.807Z,17.53
2018-05-24T21:50:27.389Z,16.97
2018-05-24T21:52:55.007Z,17.20
2018-05-24T21:55:22.599Z,16.83
2018-05-24T21:57:50.227Z,15.93
2018-05-24T22:00:18.576Z,16.37
2018-05-24T22:02:46.195Z,15.57
2018-05-24T22:05:13.787Z,16.67
2018-05-24T22:07:41.402Z,15.77
2018-05-24T22:10:09.755Z,14.73
2018-05-24T22:12:37.379Z,14.77
2018-05-24T22:15:05.799Z,15.00
2018-05-24T22:17:33.388Z,14.73
2018-05-24T22:20:01.011Z,13.70
2018-05-24T22:22:28.598Z,14.77
2018-05-24T22:24:56.223Z,13.67
2018-05-24T22:27:24.574Z,13.93
2018-05-24T22:29:52.199Z,13.87
2018-05-24T22:32:19.788Z,14.17
2018-05-24T22:34:47.419Z,13.63
2018-05-24T22:37:15.012Z,13.50
2018-05-24T22:39:42.635Z,12.73
2018-05-24T22:42:10.226Z,13.73
2018-05-24T22:44:38.630Z,12.97
2018-05-24T22:47:06.210Z,13.03
2018-05-24T22:49:33.862Z,12.23
2018-05-24T22:52:01.451Z,12.00
2018-05-24T22:54:29.072Z,12.57
2018-05-24T22:56:56.659Z,13.20
2018-05-24T22:59:25.052Z,13.33
2018-05-24T23:01:52.679Z,13.37
2018-05-24T23:04:20.300Z,14.37
2018-05-24T23:06:47.886Z,13.37
2018-05-24T23:09:15.511Z,13.03
2018-05-24T23:11:43.863Z,13.83
2018-05-24T23:14:11.490Z,14.63
2018-05-24T23:16:39.081Z,15.10
2018-05-24T23:19:07.467Z,14.10
2018-05-24T23:21:35.060Z,14.60
2018-05-24T23:24:02.684Z,14.43
2018-05-24T23:26:30.271Z,14.57
2018-05-24T23:28:57.866Z,13.77
2018-05-24T23:31:25.479Z,14.43
2018-05-24T23:33:53.067Z,14.20
2018-05-24T23:36:20.686Z,14.40
2018-05-24T23:38:49.048Z,15.03
2018-05-24T23:41:16.691Z,15.67
2018-05-24T23:43:44.379Z,14.73
2018-05-24T23:46:12.004Z,14.33
2018-05-24T23:48:39.603Z,14.60
2018-05-24T23:51:07.233Z,14.53
2018-05-24T23:53:34.822Z,15.67
2018-05-24T23:56:02.442Z,14.60
2018-05-24T23:58:30.039Z,15.00
